Hawaiian Chieftain — WDC8751 — position and weather

sailwx.info

Track history (hours):
 
Tides and Currents Weather Stations Pressure Air Temp Water Temp Dewpoint Dewpoint Depression Visibility Wind Speed Wind Dir Waves Ship Positions

Hawaiian Chieftain (United States)

Operated briefly as "Spirt of Larinda". When she sailed from Sausalito, California, callsign was WAA7737.

Ship's website: http://www.historicalseaport.org/HawaiianChieftain.htm

Owner: GRAYS HARBOR HISTORICAL SEAPORT AUTHORITY, ABERDEEN, WA. More information available from US FCC via Universal Licensing System and Coast Guard Vessel Documentation Center.

Last reported at 2018-Oct-21 13:07 UTC. Time now 2018-Dec-12 04:50 UTC.
Position N 38°01' W 121°49'.
Warning: this ship's position is 51 days out of date.

Length 20 m.

Type: Sailing vessel. MMSI: 367092520.

Date/timePositionNaut miles runAvg speedWind from/ knotsBaromVisibWave heightAir tempDewpointWater temp
2018-Oct-21 13:07N 38°01' W 121°49'0 0.0
2018-Oct-21 12:55N 38°01' W 121°49'30 0.7
2018-Oct-19 18:49N 37°53' W 122°25'2 6.1
2018-Oct-19 18:28N 37°51' W 122°25'2 5.2
2018-Oct-19 18:02N 37°50' W 122°28'0 5.9
2018-Oct-19 18:00N 37°50' W 122°28'2 4.3
2018-Oct-19 17:30N 37°48' W 122°30'3518.1
2018-Oct-19 15:35N 38°05' W 123°09'19 2.8
2018-Oct-19 08:49N 38°22' W 123°19'2 7.4
2018-Oct-19 08:30N 38°24' W 123°21'4 7.4
2018-Oct-19 07:55N 38°28' W 123°24'  
2018-Oct-16 04:22N 45°22' W 124°15'3 7.4
2018-Oct-16 04:01N 45°24' W 124°16'0 7.5
2018-Oct-16 03:58N 45°25' W 124°16'4 7.5
2018-Oct-16 03:26N 45°29' W 124°17'3 7.6
2018-Oct-16 03:02N 45°32' W 124°18'1 7.2
2018-Oct-16 02:57N 45°32' W 124°18'4 7.7
2018-Oct-16 02:26N 45°36' W 124°19'3 7.2
2018-Oct-16 02:00N 45°39' W 124°19'4 7.6
2018-Oct-16 01:30N 45°43' W 124°19'3 7.4
2018-Oct-16 01:03N 45°46' W 124°20'0 7.4
2018-Oct-16 01:00N 45°47' W 124°20'4 7.5
2018-Oct-16 00:30N 45°50' W 124°20'3 7.4
2018-Oct-16 00:03N 45°54' W 124°21'0 7.5
2018-Oct-16 00:00N 45°54' W 124°21'4 7.1
2018-Oct-15 23:30N 45°58' W 124°22'2 5.4
2018-Oct-15 23:03N 45°60' W 124°22'0 5.3
2018-Oct-15 23:00N 46°00' W 124°22'2 4.7
2018-Oct-15 22:30N 46°03' W 124°21'1 3.1
2018-Oct-15 22:03N 46°04' W 124°21'0 3.1
2018-Oct-15 21:59N 46°04' W 124°21'1 3.0
2018-Oct-15 21:30N 46°05' W 124°20'2 3.5
2018-Oct-15 21:03N 46°07' W 124°19'0 3.8
2018-Oct-15 21:00N 46°07' W 124°19'2 3.6
2018-Oct-15 20:30N 46°09' W 124°18'2 3.9
2018-Oct-15 20:03N 46°10' W 124°17'0 4.0
2018-Oct-15 20:00N 46°10' W 124°17'2 4.0
2018-Oct-15 19:30N 46°12' W 124°15'2 4.3
2018-Oct-15 19:03N 46°13' W 124°13'0 4.4
2018-Oct-15 19:00N 46°13' W 124°13'3 6.4
2018-Oct-15 18:30N 46°14' W 124°08'7 8.3
2018-Oct-15 17:38N 46°13' W 123°58'3 9.2
2018-Oct-15 17:17N 46°11' W 123°54'2 8.9
2018-Oct-15 17:03N 46°11' W 123°51'0 8.3
2018-Oct-15 17:00N 46°12' W 123°51'2 3.8
2018-Oct-15 16:30N 46°12' W 123°48'0 0.4
2018-Oct-15 16:03N 46°12' W 123°48'0 0.1
2018-Oct-15 15:56N 46°12' W 123°48'0 0.0
2018-Oct-15 15:26N 46°12' W 123°48'0 0.0
2018-Oct-15 15:03N 46°12' W 123°48'0 0.1
2018-Oct-15 15:00N 46°12' W 123°48'0 0.0
2018-Oct-15 14:30N 46°12' W 123°48'0 0.0
2018-Oct-15 13:58N 46°12' W 123°48'0 0.0
2018-Oct-15 13:24N 46°12' W 123°48'0 0.0
2018-Oct-15 12:58N 46°12' W 123°48'0 0.0
2018-Oct-15 12:27N 46°12' W 123°48'0 0.0
2018-Oct-15 12:03N 46°12' W 123°48'0 0.1
2018-Oct-15 11:58N 46°12' W 123°48'0 0.0
2018-Oct-15 11:28N 46°12' W 123°48'0 0.0
2018-Oct-15 11:03N 46°12' W 123°48'0 0.1
2018-Oct-15 10:58N 46°12' W 123°48'0 0.0
2018-Oct-15 10:29N 46°12' W 123°48'0 0.0
2018-Oct-15 09:54N 46°12' W 123°48'0 0.0
2018-Oct-15 09:30N 46°12' W 123°48'0 0.0
2018-Oct-15 09:03N 46°12' W 123°48'0 0.2
2018-Oct-15 09:00N 46°12' W 123°48'0 0.0
2018-Oct-15 08:21N 46°12' W 123°48'0 0.0
2018-Oct-15 08:01N 46°12' W 123°48'0 3.1
2018-Oct-15 08:00N 46°12' W 123°48'0 0.1
2018-Oct-15 07:30N 46°12' W 123°48'0 0.2
2018-Oct-15 06:57N 46°12' W 123°48'0 0.1
2018-Oct-15 06:30N 46°12' W 123°48'0 0.1
2018-Oct-15 05:58N 46°12' W 123°48'0 0.3
2018-Oct-15 05:28N 46°12' W 123°48'0 0.6
2018-Oct-15 04:57N 46°12' W 123°48'0 0.6
2018-Oct-15 04:30N 46°12' W 123°48'0 0.1
2018-Oct-15 04:03N 46°12' W 123°48'0 0.1
2018-Oct-15 04:00N 46°12' W 123°48'0 0.0
2018-Oct-15 03:29N 46°12' W 123°48'0 0.0
2018-Oct-15 02:56N 46°12' W 123°48'0 0.0
2018-Oct-15 02:04N 46°12' W 123°48'0 0.1
2018-Oct-15 01:58N 46°12' W 123°48'0 0.0
2018-Oct-15 01:30N 46°12' W 123°48'0 0.0
2018-Oct-15 00:57N 46°12' W 123°48'0 0.0
2018-Oct-15 00:23N 46°12' W 123°48'0 0.0
2018-Oct-15 00:02N 46°12' W 123°48'0 0.1
2018-Oct-14 23:59N 46°12' W 123°48'0 0.0
2018-Oct-14 23:26N 46°12' W 123°48'0 0.0
2018-Oct-14 23:03N 46°12' W 123°48'0 0.0
2018-Oct-14 22:56N 46°12' W 123°48'0 0.0
2018-Oct-14 22:28N 46°12' W 123°48'0 0.0
2018-Oct-14 22:01N 46°12' W 123°48'0 0.0
2018-Oct-14 21:58N 46°12' W 123°48'0 0.0
2018-Oct-14 21:27N 46°12' W 123°48'0 0.0
2018-Oct-14 21:02N 46°12' W 123°48'0 0.1
2018-Oct-14 20:59N 46°12' W 123°48'0 0.0
2018-Oct-14 20:25N 46°12' W 123°48'0 0.0
2018-Oct-14 19:48N 46°12' W 123°48'0 0.0
2018-Oct-14 19:07N 46°12' W 123°48'0 0.1
2018-Oct-14 19:01N 46°12' W 123°48'0 0.0
2018-Oct-14 18:58N 46°12' W 123°48'0 0.0
2018-Oct-14 18:28N 46°12' W 123°48'0 0.0
2018-Oct-14 18:01N 46°12' W 123°48'0 0.1
2018-Oct-14 17:58N 46°12' W 123°48'0 0.0
2018-Oct-14 17:30N 46°12' W 123°48'0 0.0
2018-Oct-14 17:02N 46°12' W 123°48'0 0.1
2018-Oct-14 16:59N 46°12' W 123°48'0 0.0
2018-Oct-14 16:29N 46°12' W 123°48'0 0.0
2018-Oct-14 16:03N 46°12' W 123°48'0 0.1
2018-Oct-14 16:00N 46°12' W 123°48'0 0.0
2018-Oct-14 15:30N 46°12' W 123°48'0 0.0
2018-Oct-14 15:03N 46°12' W 123°48'0 0.0
2018-Oct-14 15:00N 46°12' W 123°48'0 0.0
2018-Oct-14 14:30N 46°12' W 123°48'0 0.0
2018-Oct-14 13:59N 46°12' W 123°48'0 0.0
2018-Oct-14 13:30N 46°12' W 123°48'0 0.0
2018-Oct-14 13:00N 46°12' W 123°48'0 0.0
2018-Oct-14 12:29N 46°12' W 123°48'0 0.0
2018-Oct-14 12:03N 46°12' W 123°48'0 0.1
2018-Oct-14 12:00N 46°12' W 123°48'0 0.0
2018-Oct-14 11:30N 46°12' W 123°48'0 0.0
2018-Oct-14 11:01N 46°12' W 123°48'0 0.1
2018-Oct-14 10:58N 46°12' W 123°48'0 0.0
2018-Oct-14 10:30N 46°12' W 123°48'0 0.0
2018-Oct-14 10:03N 46°12' W 123°48'0 0.0
2018-Oct-14 09:57N 46°12' W 123°48'0 0.0
2018-Oct-14 09:30N 46°12' W 123°48'0 0.0
2018-Oct-14 09:03N 46°12' W 123°48'0 0.1
2018-Oct-14 09:00N 46°12' W 123°48'0 0.0
2018-Oct-14 08:15N 46°12' W 123°48'0 0.0
2018-Oct-14 08:01N 46°12' W 123°48'0 0.0
2018-Oct-14 07:58N 46°12' W 123°48'0 0.0
2018-Oct-14 07:25N 46°12' W 123°48'0 0.0
2018-Oct-14 06:55N 46°12' W 123°48'0 0.0
2018-Oct-14 06:22N 46°12' W 123°48'0 0.0
2018-Oct-14 06:01N 46°12' W 123°48'0 0.1
2018-Oct-14 05:55N 46°12' W 123°48'0 0.0
2018-Oct-14 05:28N 46°12' W 123°48'0 0.0
2018-Oct-14 05:02N 46°12' W 123°48'0 0.0
2018-Oct-14 04:53N 46°12' W 123°48'0 0.0
2018-Oct-14 04:27N 46°12' W 123°48'0 0.0
2018-Oct-14 04:02N 46°12' W 123°48'0 0.1
2018-Oct-14 03:43N 46°12' W 123°48'0 0.0
2018-Oct-14 03:28N 46°12' W 123°48'0 0.0
2018-Oct-14 03:01N 46°12' W 123°48'0 0.0
2018-Oct-14 02:40N 46°12' W 123°48'0 0.0
2018-Oct-14 02:13N 46°12' W 123°48'0 0.2
2018-Oct-14 01:58N 46°12' W 123°48'0 0.1
2018-Oct-14 01:23N 46°12' W 123°48'0 0.0
2018-Oct-14 01:02N 46°12' W 123°48'0 0.1
2018-Oct-14 00:56N 46°12' W 123°48'0 0.0
2018-Oct-14 00:10N 46°12' W 123°48'0 0.0
2018-Oct-13 23:48N 46°12' W 123°48'0 0.0
2018-Oct-13 23:29N 46°12' W 123°48'0 0.0
2018-Oct-13 23:02N 46°12' W 123°48'0 0.1
2018-Oct-13 22:59N 46°12' W 123°48'0 0.0
2018-Oct-13 22:28N 46°12' W 123°48'0 0.0
2018-Oct-13 22:03N 46°12' W 123°48'0 0.1
2018-Oct-13 22:00N 46°12' W 123°48'0 0.0
2018-Oct-13 21:30N 46°12' W 123°48'0 0.0
2018-Oct-13 21:03N 46°12' W 123°48'0 0.2
2018-Oct-13 21:00N 46°12' W 123°48'0 0.0
2018-Oct-13 20:26N 46°12' W 123°48'0 0.0
2018-Oct-13 20:01N 46°12' W 123°48'0 0.5
2018-Oct-13 19:58N 46°12' W 123°48'0 0.0
2018-Oct-13 19:21N 46°12' W 123°48'0 0.0
2018-Oct-13 18:59N 46°12' W 123°48'0 0.0
2018-Oct-13 18:30N 46°12' W 123°48'0 0.0
2018-Oct-13 18:03N 46°12' W 123°48'0 0.2
2018-Oct-13 18:00N 46°12' W 123°48'0 0.0
2018-Oct-13 17:29N 46°12' W 123°48'0 0.0
2018-Oct-13 17:02N 46°12' W 123°48'0 0.1
2018-Oct-13 16:59N 46°12' W 123°48'0 0.0
2018-Oct-13 16:28N 46°12' W 123°48'0 0.0
2018-Oct-13 16:01N 46°12' W 123°48'0 0.0
2018-Oct-13 15:58N 46°12' W 123°48'0 0.0
2018-Oct-13 15:30N 46°12' W 123°48'0 0.0
2018-Oct-13 15:00N 46°12' W 123°48'0 0.0
2018-Oct-13 13:59N 46°12' W 123°48'0 0.0
2018-Oct-13 13:30N 46°12' W 123°48'0 0.0
2018-Oct-13 12:55N 46°12' W 123°48'0 0.0
2018-Oct-13 12:28N 46°12' W 123°48'0 0.0
2018-Oct-13 12:01N 46°12' W 123°48'0 0.1
2018-Oct-13 11:58N 46°12' W 123°48'0 0.0
2018-Oct-13 11:30N 46°12' W 123°48'0 0.0
2018-Oct-13 11:02N 46°12' W 123°48'0 0.1
2018-Oct-13 10:59N 46°12' W 123°48'0 0.0
2018-Oct-13 10:30N 46°12' W 123°48'0 0.0
2018-Oct-13 09:59N 46°12' W 123°48'0 0.0
2018-Oct-13 09:26N 46°12' W 123°48'0 0.0
2018-Oct-13 09:01N 46°12' W 123°48'0 0.1
2018-Oct-13 08:58N 46°12' W 123°48'0 0.0
2018-Oct-13 08:28N 46°12' W 123°48'0 0.0
2018-Oct-13 08:03N 46°12' W 123°48'0 0.1
2018-Oct-13 07:55N 46°12' W 123°48'0 0.0
2018-Oct-13 07:28N 46°12' W 123°48'0 0.0
2018-Oct-13 06:59N 46°12' W 123°48'0 0.0
2018-Oct-13 06:28N 46°12' W 123°48'0 0.0
2018-Oct-13 06:03N 46°12' W 123°48'0 0.1
2018-Oct-13 06:00N 46°12' W 123°48'0 0.0
2018-Oct-13 05:30N 46°12' W 123°48'0 0.0
2018-Oct-13 04:51N 46°12' W 123°48'0 0.0
2018-Oct-13 04:24N 46°12' W 123°48'0 0.0
2018-Oct-13 03:59N 46°12' W 123°48'0 0.0
2018-Oct-13 03:29N 46°12' W 123°48'0 0.0
2018-Oct-13 03:03N 46°12' W 123°48'0 0.0
2018-Oct-13 02:54N 46°12' W 123°48'0 0.0
2018-Oct-13 02:30N 46°12' W 123°48'0 0.0
2018-Oct-13 02:02N 46°12' W 123°48'0 0.0
2018-Oct-13 01:59N 46°12' W 123°48'0 0.0
2018-Oct-13 01:30N 46°12' W 123°48'0 0.0
2018-Oct-13 01:03N 46°12' W 123°48'0 0.0
2018-Oct-13 01:00N 46°12' W 123°48'0 0.0
2018-Oct-13 00:30N 46°12' W 123°48'0 0.0
2018-Oct-13 00:02N 46°12' W 123°48'0 0.1
2018-Oct-12 23:59N 46°12' W 123°48'0 0.0
2018-Oct-12 23:28N 46°12' W 123°48'0 0.0
2018-Oct-12 23:03N 46°12' W 123°48'0 0.2
2018-Oct-12 22:58N 46°12' W 123°48'0 0.0
2018-Oct-12 22:28N 46°12' W 123°48'0 0.0
2018-Oct-12 22:03N 46°12' W 123°48'0 0.0
2018-Oct-12 22:00N 46°12' W 123°48'0 0.0
2018-Oct-12 21:28N 46°12' W 123°48'0 0.0
2018-Oct-12 21:01N 46°12' W 123°48'0 0.0
2018-Oct-12 20:52N 46°12' W 123°48'0 0.1
2018-Oct-12 20:28N 46°12' W 123°48'0 0.0
2018-Oct-12 19:35N 46°12' W 123°48'0 0.0
2018-Oct-12 19:11N 46°12' W 123°48'0 0.1
2018-Oct-12 19:01N 46°12' W 123°48'0 0.1
2018-Oct-12 18:58N 46°12' W 123°48'0 0.0
2018-Oct-12 18:28N 46°12' W 123°48'0 0.0
2018-Oct-12 17:29N 46°12' W 123°48'0 0.0
2018-Oct-12 17:02N 46°12' W 123°48'0 0.1
2018-Oct-12 16:59N 46°12' W 123°48'0 0.0
2018-Oct-12 16:28N 46°12' W 123°48'0 0.0
2018-Oct-12 16:01N 46°12' W 123°48'0 0.1
2018-Oct-12 15:58N 46°12' W 123°48'0 0.0
2018-Oct-12 15:28N 46°12' W 123°48'0 0.0
2018-Oct-12 14:58N 46°12' W 123°48'0 0.0
2018-Oct-12 13:58N 46°12' W 123°48'0 0.0
2018-Oct-12 13:28N 46°12' W 123°48'0 0.0
2018-Oct-12 13:00N 46°12' W 123°48'0 0.0
2018-Oct-12 12:29N 46°12' W 123°48'0 0.0
2018-Oct-12 12:02N 46°12' W 123°48'0 0.1
2018-Oct-12 11:59N 46°12' W 123°48'0 0.0
2018-Oct-12 11:30N 46°12' W 123°48'0 0.0
2018-Oct-12 11:03N 46°12' W 123°48'0 0.0
2018-Oct-12 10:38N 46°12' W 123°48'0 0.1
2018-Oct-12 10:28N 46°12' W 123°48'0 0.0
2018-Oct-12 10:01N 46°12' W 123°48'0 0.1
2018-Oct-12 09:55N 46°12' W 123°48'0 0.0
2018-Oct-12 09:28N 46°12' W 123°48'0 0.0
2018-Oct-12 08:43N 46°12' W 123°48'0 0.0
2018-Oct-12 08:29N 46°12' W 123°48'0 0.0
2018-Oct-12 08:02N 46°12' W 123°48'0 0.0
2018-Oct-12 07:59N 46°12' W 123°48'0 0.0
2018-Oct-12 07:28N 46°12' W 123°48'0 0.0
2018-Oct-12 06:43N 46°12' W 123°48'0 0.1
2018-Oct-12 06:30N 46°12' W 123°48'0 0.0
2018-Oct-12 06:01N 46°12' W 123°48'0 0.7
2018-Oct-12 06:00N 46°12' W 123°48'0 0.0
2018-Oct-12 05:28N 46°12' W 123°48'0 0.0
2018-Oct-12 05:01N 46°12' W 123°48'0 0.0
2018-Oct-12 04:58N 46°12' W 123°48'0 0.0
2018-Oct-12 04:27N 46°12' W 123°48'0 0.0
2018-Oct-12 04:03N 46°12' W 123°48'0 0.0
2018-Oct-12 04:00N 46°12' W 123°48'0 0.0
2018-Oct-12 03:15N 46°12' W 123°48'0 0.0
2018-Oct-12 03:03N 46°12' W 123°48'0 0.0
2018-Oct-12 03:00N 46°12' W 123°48'0 0.0
2018-Oct-12 02:30N 46°12' W 123°48'0 0.0
2018-Oct-12 02:00N 46°12' W 123°48'0 0.0
2018-Oct-12 01:28N 46°12' W 123°48'0 0.0
2018-Oct-12 01:02N 46°12' W 123°48'0 0.1
2018-Oct-12 00:59N 46°12' W 123°48'0 0.0
2018-Oct-12 00:28N 46°12' W 123°48'0 0.0
2018-Oct-12 00:01N 46°12' W 123°48'0 0.2
2018-Oct-11 23:55N 46°12' W 123°48'0 0.0
2018-Oct-11 23:30N 46°12' W 123°48'0 0.0
2018-Oct-11 23:03N 46°12' W 123°48'0 0.1
2018-Oct-11 22:57N 46°12' W 123°48'0 0.0
2018-Oct-11 22:29N 46°12' W 123°48'0 0.0
2018-Oct-11 22:02N 46°12' W 123°48'0 0.1
2018-Oct-11 21:59N 46°12' W 123°48'0 0.0
2018-Oct-11 21:30N 46°12' W 123°48'0 0.0
2018-Oct-11 21:00N 46°12' W 123°48'0 0.0
2018-Oct-11 20:27N 46°12' W 123°48'0 0.0
2018-Oct-11 20:03N 46°12' W 123°48'0 0.1
2018-Oct-11 20:00N 46°12' W 123°48'0 0.0
2018-Oct-11 19:30N 46°12' W 123°48'0 0.0
2018-Oct-11 19:03N 46°12' W 123°48'0 0.0
2018-Oct-11 19:00N 46°12' W 123°48'0 0.0
2018-Oct-11 18:28N 46°12' W 123°48'0 0.0
2018-Oct-11 18:02N 46°12' W 123°48'0 0.1
2018-Oct-11 17:59N 46°12' W 123°48'0 0.0
2018-Oct-11 17:30N 46°12' W 123°48'0 0.0
2018-Oct-11 17:01N 46°12' W 123°48'0 0.0
2018-Oct-11 17:00N 46°12' W 123°48'0 0.0
2018-Oct-11 16:30N 46°12' W 123°48'0 0.0
2018-Oct-11 16:03N 46°12' W 123°48'0 0.1
2018-Oct-11 16:00N 46°12' W 123°48'0 0.0
2018-Oct-11 15:30N 46°12' W 123°48'0 0.0
2018-Oct-11 15:03N 46°12' W 123°48'0 0.0
2018-Oct-11 15:00N 46°12' W 123°48'0 0.0
2018-Oct-11 14:30N 46°12' W 123°48'0 0.0
2018-Oct-11 13:30N 46°12' W 123°48'  
Track history (hours):
 
Tides and Currents Weather Stations Pressure Air Temp Water Temp Dewpoint Dewpoint Depression Visibility Wind Speed Wind Dir Waves Ship Positions

Hawaiian Chieftain (United States)

Operated briefly as "Spirt of Larinda". When she sailed from Sausalito, California, callsign was WAA7737.

Ship's website: http://www.historicalseaport.org/HawaiianChieftain.htm

Owner: GRAYS HARBOR HISTORICAL SEAPORT AUTHORITY, ABERDEEN, WA. More information available from US FCC via Universal Licensing System and Coast Guard Vessel Documentation Center.

Last reported at 2018-Oct-21 13:07 UTC. Time now 2018-Dec-12 04:50 UTC.
Position N 38°01' W 121°49'.
Warning: this ship's position is 51 days out of date.

Length 20 m.

Type: Sailing vessel. MMSI: 367092520.

Date/timePositionNaut miles runAvg speedWind from/ knotsBaromVisibWave heightAir tempDewpointWater temp
2018-Oct-21 13:07N 38°01' W 121°49'0 0.0
2018-Oct-21 12:55N 38°01' W 121°49'30 0.7
2018-Oct-19 18:49N 37°53' W 122°25'2 6.1
2018-Oct-19 18:28N 37°51' W 122°25'2 5.2
2018-Oct-19 18:02N 37°50' W 122°28'0 5.9
2018-Oct-19 18:00N 37°50' W 122°28'2 4.3
2018-Oct-19 17:30N 37°48' W 122°30'3518.1
2018-Oct-19 15:35N 38°05' W 123°09'19 2.8
2018-Oct-19 08:49N 38°22' W 123°19'2 7.4
2018-Oct-19 08:30N 38°24' W 123°21'4 7.4
2018-Oct-19 07:55N 38°28' W 123°24'  
2018-Oct-16 04:22N 45°22' W 124°15'3 7.4
2018-Oct-16 04:01N 45°24' W 124°16'0 7.5
2018-Oct-16 03:58N 45°25' W 124°16'4 7.5
2018-Oct-16 03:26N 45°29' W 124°17'3 7.6
2018-Oct-16 03:02N 45°32' W 124°18'1 7.2
2018-Oct-16 02:57N 45°32' W 124°18'4 7.7
2018-Oct-16 02:26N 45°36' W 124°19'3 7.2
2018-Oct-16 02:00N 45°39' W 124°19'4 7.6
2018-Oct-16 01:30N 45°43' W 124°19'3 7.4
2018-Oct-16 01:03N 45°46' W 124°20'0 7.4
2018-Oct-16 01:00N 45°47' W 124°20'4 7.5
2018-Oct-16 00:30N 45°50' W 124°20'3 7.4
2018-Oct-16 00:03N 45°54' W 124°21'0 7.5
2018-Oct-16 00:00N 45°54' W 124°21'4 7.1
2018-Oct-15 23:30N 45°58' W 124°22'2 5.4
2018-Oct-15 23:03N 45°60' W 124°22'0 5.3
2018-Oct-15 23:00N 46°00' W 124°22'2 4.7
2018-Oct-15 22:30N 46°03' W 124°21'1 3.1
2018-Oct-15 22:03N 46°04' W 124°21'0 3.1
2018-Oct-15 21:59N 46°04' W 124°21'1 3.0
2018-Oct-15 21:30N 46°05' W 124°20'2 3.5
2018-Oct-15 21:03N 46°07' W 124°19'0 3.8
2018-Oct-15 21:00N 46°07' W 124°19'2 3.6
2018-Oct-15 20:30N 46°09' W 124°18'2 3.9
2018-Oct-15 20:03N 46°10' W 124°17'0 4.0
2018-Oct-15 20:00N 46°10' W 124°17'2 4.0
2018-Oct-15 19:30N 46°12' W 124°15'2 4.3
2018-Oct-15 19:03N 46°13' W 124°13'0 4.4
2018-Oct-15 19:00N 46°13' W 124°13'3 6.4
2018-Oct-15 18:30N 46°14' W 124°08'7 8.3
2018-Oct-15 17:38N 46°13' W 123°58'3 9.2
2018-Oct-15 17:17N 46°11' W 123°54'2 8.9
2018-Oct-15 17:03N 46°11' W 123°51'0 8.3
2018-Oct-15 17:00N 46°12' W 123°51'2 3.8
2018-Oct-15 16:30N 46°12' W 123°48'0 0.4
2018-Oct-15 16:03N 46°12' W 123°48'0 0.1
2018-Oct-15 15:56N 46°12' W 123°48'0 0.0
2018-Oct-15 15:26N 46°12' W 123°48'0 0.0
2018-Oct-15 15:03N 46°12' W 123°48'0 0.1
2018-Oct-15 15:00N 46°12' W 123°48'0 0.0
2018-Oct-15 14:30N 46°12' W 123°48'0 0.0
2018-Oct-15 13:58N 46°12' W 123°48'0 0.0
2018-Oct-15 13:24N 46°12' W 123°48'0 0.0
2018-Oct-15 12:58N 46°12' W 123°48'0 0.0
2018-Oct-15 12:27N 46°12' W 123°48'0 0.0
2018-Oct-15 12:03N 46°12' W 123°48'0 0.1
2018-Oct-15 11:58N 46°12' W 123°48'0 0.0
2018-Oct-15 11:28N 46°12' W 123°48'0 0.0
2018-Oct-15 11:03N 46°12' W 123°48'0 0.1
2018-Oct-15 10:58N 46°12' W 123°48'0 0.0
2018-Oct-15 10:29N 46°12' W 123°48'0 0.0
2018-Oct-15 09:54N 46°12' W 123°48'0 0.0
2018-Oct-15 09:30N 46°12' W 123°48'0 0.0
2018-Oct-15 09:03N 46°12' W 123°48'0 0.2
2018-Oct-15 09:00N 46°12' W 123°48'0 0.0
2018-Oct-15 08:21N 46°12' W 123°48'0 0.0
2018-Oct-15 08:01N 46°12' W 123°48'0 3.1
2018-Oct-15 08:00N 46°12' W 123°48'0 0.1
2018-Oct-15 07:30N 46°12' W 123°48'0 0.2
2018-Oct-15 06:57N 46°12' W 123°48'0 0.1
2018-Oct-15 06:30N 46°12' W 123°48'0 0.1
2018-Oct-15 05:58N 46°12' W 123°48'0 0.3
2018-Oct-15 05:28N 46°12' W 123°48'0 0.6
2018-Oct-15 04:57N 46°12' W 123°48'0 0.6
2018-Oct-15 04:30N 46°12' W 123°48'0 0.1
2018-Oct-15 04:03N 46°12' W 123°48'0 0.1
2018-Oct-15 04:00N 46°12' W 123°48'0 0.0
2018-Oct-15 03:29N 46°12' W 123°48'0 0.0
2018-Oct-15 02:56N 46°12' W 123°48'0 0.0
2018-Oct-15 02:04N 46°12' W 123°48'0 0.1
2018-Oct-15 01:58N 46°12' W 123°48'0 0.0
2018-Oct-15 01:30N 46°12' W 123°48'0 0.0
2018-Oct-15 00:57N 46°12' W 123°48'0 0.0
2018-Oct-15 00:23N 46°12' W 123°48'0 0.0
2018-Oct-15 00:02N 46°12' W 123°48'0 0.1
2018-Oct-14 23:59N 46°12' W 123°48'0 0.0
2018-Oct-14 23:26N 46°12' W 123°48'0 0.0
2018-Oct-14 23:03N 46°12' W 123°48'0 0.0
2018-Oct-14 22:56N 46°12' W 123°48'0 0.0
2018-Oct-14 22:28N 46°12' W 123°48'0 0.0
2018-Oct-14 22:01N 46°12' W 123°48'0 0.0
2018-Oct-14 21:58N 46°12' W 123°48'0 0.0
2018-Oct-14 21:27N 46°12' W 123°48'0 0.0
2018-Oct-14 21:02N 46°12' W 123°48'0 0.1
2018-Oct-14 20:59N 46°12' W 123°48'0 0.0
2018-Oct-14 20:25N 46°12' W 123°48'0 0.0
2018-Oct-14 19:48N 46°12' W 123°48'0 0.0
2018-Oct-14 19:07N 46°12' W 123°48'0 0.1
2018-Oct-14 19:01N 46°12' W 123°48'0 0.0
2018-Oct-14 18:58N 46°12' W 123°48'0 0.0
2018-Oct-14 18:28N 46°12' W 123°48'0 0.0
2018-Oct-14 18:01N 46°12' W 123°48'0 0.1
2018-Oct-14 17:58N 46°12' W 123°48'0 0.0
2018-Oct-14 17:30N 46°12' W 123°48'0 0.0
2018-Oct-14 17:02N 46°12' W 123°48'0 0.1
2018-Oct-14 16:59N 46°12' W 123°48'0 0.0
2018-Oct-14 16:29N 46°12' W 123°48'0 0.0
2018-Oct-14 16:03N 46°12' W 123°48'0 0.1
2018-Oct-14 16:00N 46°12' W 123°48'0 0.0
2018-Oct-14 15:30N 46°12' W 123°48'0 0.0
2018-Oct-14 15:03N 46°12' W 123°48'0 0.0
2018-Oct-14 15:00N 46°12' W 123°48'0 0.0
2018-Oct-14 14:30N 46°12' W 123°48'0 0.0
2018-Oct-14 13:59N 46°12' W 123°48'0 0.0
2018-Oct-14 13:30N 46°12' W 123°48'0 0.0
2018-Oct-14 13:00N 46°12' W 123°48'0 0.0
2018-Oct-14 12:29N 46°12' W 123°48'0 0.0
2018-Oct-14 12:03N 46°12' W 123°48'0 0.1
2018-Oct-14 12:00N 46°12' W 123°48'0 0.0
2018-Oct-14 11:30N 46°12' W 123°48'0 0.0
2018-Oct-14 11:01N 46°12' W 123°48'0 0.1
2018-Oct-14 10:58N 46°12' W 123°48'0 0.0
2018-Oct-14 10:30N 46°12' W 123°48'0 0.0
2018-Oct-14 10:03N 46°12' W 123°48'0 0.0
2018-Oct-14 09:57N 46°12' W 123°48'0 0.0
2018-Oct-14 09:30N 46°12' W 123°48'0 0.0
2018-Oct-14 09:03N 46°12' W 123°48'0 0.1
2018-Oct-14 09:00N 46°12' W 123°48'0 0.0
2018-Oct-14 08:15N 46°12' W 123°48'0 0.0
2018-Oct-14 08:01N 46°12' W 123°48'0 0.0
2018-Oct-14 07:58N 46°12' W 123°48'0 0.0
2018-Oct-14 07:25N 46°12' W 123°48'0 0.0
2018-Oct-14 06:55N 46°12' W 123°48'0 0.0
2018-Oct-14 06:22N 46°12' W 123°48'0 0.0
2018-Oct-14 06:01N 46°12' W 123°48'0 0.1
2018-Oct-14 05:55N 46°12' W 123°48'0 0.0
2018-Oct-14 05:28N 46°12' W 123°48'0 0.0
2018-Oct-14 05:02N 46°12' W 123°48'0 0.0
2018-Oct-14 04:53N 46°12' W 123°48'0 0.0
2018-Oct-14 04:27N 46°12' W 123°48'0 0.0
2018-Oct-14 04:02N 46°12' W 123°48'0 0.1
2018-Oct-14 03:43N 46°12' W 123°48'0 0.0
2018-Oct-14 03:28N 46°12' W 123°48'0 0.0
2018-Oct-14 03:01N 46°12' W 123°48'0 0.0
2018-Oct-14 02:40N 46°12' W 123°48'0 0.0
2018-Oct-14 02:13N 46°12' W 123°48'0 0.2
2018-Oct-14 01:58N 46°12' W 123°48'0 0.1
2018-Oct-14 01:23N 46°12' W 123°48'0 0.0
2018-Oct-14 01:02N 46°12' W 123°48'0 0.1
2018-Oct-14 00:56N 46°12' W 123°48'0 0.0
2018-Oct-14 00:10N 46°12' W 123°48'0 0.0
2018-Oct-13 23:48N 46°12' W 123°48'0 0.0
2018-Oct-13 23:29N 46°12' W 123°48'0 0.0
2018-Oct-13 23:02N 46°12' W 123°48'0 0.1
2018-Oct-13 22:59N 46°12' W 123°48'0 0.0
2018-Oct-13 22:28N 46°12' W 123°48'0 0.0
2018-Oct-13 22:03N 46°12' W 123°48'0 0.1
2018-Oct-13 22:00N 46°12' W 123°48'0 0.0
2018-Oct-13 21:30N 46°12' W 123°48'0 0.0
2018-Oct-13 21:03N 46°12' W 123°48'0 0.2
2018-Oct-13 21:00N 46°12' W 123°48'0 0.0
2018-Oct-13 20:26N 46°12' W 123°48'0 0.0
2018-Oct-13 20:01N 46°12' W 123°48'0 0.5
2018-Oct-13 19:58N 46°12' W 123°48'0 0.0
2018-Oct-13 19:21N 46°12' W 123°48'0 0.0
2018-Oct-13 18:59N 46°12' W 123°48'0 0.0
2018-Oct-13 18:30N 46°12' W 123°48'0 0.0
2018-Oct-13 18:03N 46°12' W 123°48'0 0.2
2018-Oct-13 18:00N 46°12' W 123°48'0 0.0
2018-Oct-13 17:29N 46°12' W 123°48'0 0.0
2018-Oct-13 17:02N 46°12' W 123°48'0 0.1
2018-Oct-13 16:59N 46°12' W 123°48'0 0.0
2018-Oct-13 16:28N 46°12' W 123°48'0 0.0
2018-Oct-13 16:01N 46°12' W 123°48'0 0.0
2018-Oct-13 15:58N 46°12' W 123°48'0 0.0
2018-Oct-13 15:30N 46°12' W 123°48'0 0.0
2018-Oct-13 15:00N 46°12' W 123°48'0 0.0
2018-Oct-13 13:59N 46°12' W 123°48'0 0.0
2018-Oct-13 13:30N 46°12' W 123°48'0 0.0
2018-Oct-13 12:55N 46°12' W 123°48'0 0.0
2018-Oct-13 12:28N 46°12' W 123°48'0 0.0
2018-Oct-13 12:01N 46°12' W 123°48'0 0.1
2018-Oct-13 11:58N 46°12' W 123°48'0 0.0
2018-Oct-13 11:30N 46°12' W 123°48'0 0.0
2018-Oct-13 11:02N 46°12' W 123°48'0 0.1
2018-Oct-13 10:59N 46°12' W 123°48'0 0.0
2018-Oct-13 10:30N 46°12' W 123°48'0 0.0
2018-Oct-13 09:59N 46°12' W 123°48'0 0.0
2018-Oct-13 09:26N 46°12' W 123°48'0 0.0
2018-Oct-13 09:01N 46°12' W 123°48'0 0.1
2018-Oct-13 08:58N 46°12' W 123°48'0 0.0
2018-Oct-13 08:28N 46°12' W 123°48'0 0.0
2018-Oct-13 08:03N 46°12' W 123°48'0 0.1
2018-Oct-13 07:55N 46°12' W 123°48'0 0.0
2018-Oct-13 07:28N 46°12' W 123°48'0 0.0
2018-Oct-13 06:59N 46°12' W 123°48'0 0.0
2018-Oct-13 06:28N 46°12' W 123°48'0 0.0
2018-Oct-13 06:03N 46°12' W 123°48'0 0.1
2018-Oct-13 06:00N 46°12' W 123°48'0 0.0
2018-Oct-13 05:30N 46°12' W 123°48'0 0.0
2018-Oct-13 04:51N 46°12' W 123°48'0 0.0
2018-Oct-13 04:24N 46°12' W 123°48'0 0.0
2018-Oct-13 03:59N 46°12' W 123°48'0 0.0
2018-Oct-13 03:29N 46°12' W 123°48'0 0.0
2018-Oct-13 03:03N 46°12' W 123°48'0 0.0
2018-Oct-13 02:54N 46°12' W 123°48'0 0.0
2018-Oct-13 02:30N 46°12' W 123°48'0 0.0
2018-Oct-13 02:02N 46°12' W 123°48'0 0.0
2018-Oct-13 01:59N 46°12' W 123°48'0 0.0
2018-Oct-13 01:30N 46°12' W 123°48'0 0.0
2018-Oct-13 01:03N 46°12' W 123°48'0 0.0
2018-Oct-13 01:00N 46°12' W 123°48'0 0.0
2018-Oct-13 00:30N 46°12' W 123°48'0 0.0
2018-Oct-13 00:02N 46°12' W 123°48'0 0.1
2018-Oct-12 23:59N 46°12' W 123°48'0 0.0
2018-Oct-12 23:28N 46°12' W 123°48'0 0.0
2018-Oct-12 23:03N 46°12' W 123°48'0 0.2
2018-Oct-12 22:58N 46°12' W 123°48'0 0.0
2018-Oct-12 22:28N 46°12' W 123°48'0 0.0
2018-Oct-12 22:03N 46°12' W 123°48'0 0.0
2018-Oct-12 22:00N 46°12' W 123°48'0 0.0
2018-Oct-12 21:28N 46°12' W 123°48'0 0.0
2018-Oct-12 21:01N 46°12' W 123°48'0 0.0
2018-Oct-12 20:52N 46°12' W 123°48'0 0.1
2018-Oct-12 20:28N 46°12' W 123°48'0 0.0
2018-Oct-12 19:35N 46°12' W 123°48'0 0.0
2018-Oct-12 19:11N 46°12' W 123°48'0 0.1
2018-Oct-12 19:01N 46°12' W 123°48'0 0.1
2018-Oct-12 18:58N 46°12' W 123°48'0 0.0
2018-Oct-12 18:28N 46°12' W 123°48'0 0.0
2018-Oct-12 17:29N 46°12' W 123°48'0 0.0
2018-Oct-12 17:02N 46°12' W 123°48'0 0.1
2018-Oct-12 16:59N 46°12' W 123°48'0 0.0
2018-Oct-12 16:28N 46°12' W 123°48'0 0.0
2018-Oct-12 16:01N 46°12' W 123°48'0 0.1
2018-Oct-12 15:58N 46°12' W 123°48'0 0.0
2018-Oct-12 15:28N 46°12' W 123°48'0 0.0
2018-Oct-12 14:58N 46°12' W 123°48'0 0.0
2018-Oct-12 13:58N 46°12' W 123°48'0 0.0
2018-Oct-12 13:28N 46°12' W 123°48'0 0.0
2018-Oct-12 13:00N 46°12' W 123°48'0 0.0
2018-Oct-12 12:29N 46°12' W 123°48'0 0.0
2018-Oct-12 12:02N 46°12' W 123°48'0 0.1
2018-Oct-12 11:59N 46°12' W 123°48'0 0.0
2018-Oct-12 11:30N 46°12' W 123°48'0 0.0
2018-Oct-12 11:03N 46°12' W 123°48'0 0.0
2018-Oct-12 10:38N 46°12' W 123°48'0 0.1
2018-Oct-12 10:28N 46°12' W 123°48'0 0.0
2018-Oct-12 10:01N 46°12' W 123°48'0 0.1
2018-Oct-12 09:55N 46°12' W 123°48'0 0.0
2018-Oct-12 09:28N 46°12' W 123°48'0 0.0
2018-Oct-12 08:43N 46°12' W 123°48'0 0.0
2018-Oct-12 08:29N 46°12' W 123°48'0 0.0
2018-Oct-12 08:02N 46°12' W 123°48'0 0.0
2018-Oct-12 07:59N 46°12' W 123°48'0 0.0
2018-Oct-12 07:28N 46°12' W 123°48'0 0.0
2018-Oct-12 06:43N 46°12' W 123°48'0 0.1
2018-Oct-12 06:30N 46°12' W 123°48'0 0.0
2018-Oct-12 06:01N 46°12' W 123°48'0 0.7
2018-Oct-12 06:00N 46°12' W 123°48'0 0.0
2018-Oct-12 05:28N 46°12' W 123°48'0 0.0
2018-Oct-12 05:01N 46°12' W 123°48'0 0.0
2018-Oct-12 04:58N 46°12' W 123°48'0 0.0
2018-Oct-12 04:27N 46°12' W 123°48'0 0.0
2018-Oct-12 04:03N 46°12' W 123°48'0 0.0
2018-Oct-12 04:00N 46°12' W 123°48'0 0.0
2018-Oct-12 03:15N 46°12' W 123°48'0 0.0
2018-Oct-12 03:03N 46°12' W 123°48'0 0.0
2018-Oct-12 03:00N 46°12' W 123°48'0 0.0
2018-Oct-12 02:30N 46°12' W 123°48'0 0.0
2018-Oct-12 02:00N 46°12' W 123°48'0 0.0
2018-Oct-12 01:28N 46°12' W 123°48'0 0.0
2018-Oct-12 01:02N 46°12' W 123°48'0 0.1
2018-Oct-12 00:59N 46°12' W 123°48'0 0.0
2018-Oct-12 00:28N 46°12' W 123°48'0 0.0
2018-Oct-12 00:01N 46°12' W 123°48'0 0.2
2018-Oct-11 23:55N 46°12' W 123°48'0 0.0
2018-Oct-11 23:30N 46°12' W 123°48'0 0.0
2018-Oct-11 23:03N 46°12' W 123°48'0 0.1
2018-Oct-11 22:57N 46°12' W 123°48'0 0.0
2018-Oct-11 22:29N 46°12' W 123°48'0 0.0
2018-Oct-11 22:02N 46°12' W 123°48'0 0.1
2018-Oct-11 21:59N 46°12' W 123°48'0 0.0
2018-Oct-11 21:30N 46°12' W 123°48'0 0.0
2018-Oct-11 21:00N 46°12' W 123°48'0 0.0
2018-Oct-11 20:27N 46°12' W 123°48'0 0.0
2018-Oct-11 20:03N 46°12' W 123°48'0 0.1
2018-Oct-11 20:00N 46°12' W 123°48'0 0.0
2018-Oct-11 19:30N 46°12' W 123°48'0 0.0
2018-Oct-11 19:03N 46°12' W 123°48'0 0.0
2018-Oct-11 19:00N 46°12' W 123°48'0 0.0
2018-Oct-11 18:28N 46°12' W 123°48'0 0.0
2018-Oct-11 18:02N 46°12' W 123°48'0 0.1
2018-Oct-11 17:59N 46°12' W 123°48'0 0.0
2018-Oct-11 17:30N 46°12' W 123°48'0 0.0
2018-Oct-11 17:01N 46°12' W 123°48'0 0.0
2018-Oct-11 17:00N 46°12' W 123°48'0 0.0
2018-Oct-11 16:30N 46°12' W 123°48'0 0.0
2018-Oct-11 16:03N 46°12' W 123°48'0 0.1
2018-Oct-11 16:00N 46°12' W 123°48'0 0.0
2018-Oct-11 15:30N 46°12' W 123°48'0 0.0
2018-Oct-11 15:03N 46°12' W 123°48'0 0.0
2018-Oct-11 15:00N 46°12' W 123°48'0 0.0
2018-Oct-11 14:30N 46°12' W 123°48'0 0.0
2018-Oct-11 13:30N 46°12' W 123°48'  

Dump ship's entire track history